Time;durP1;ratioP1;P1;durP2;ratioP2;P2;SDS_P1;SDS_P2;PMS_P1;PMS_P2;Temp;Humidity;BMP_temperature;BMP_pressure;BME280_temperature;BME280_humidity;BME280_pressure;Samples;Min_cycle;Max_cycle;Signal;HPM_P1;HPM_P2
2022/10/04 00:01:04;;;;;;;23.77;21.77;;;8.40;96.00;;;;;;5005346;28;20204;-70
2022/10/04 00:03:35;;;;;;;23.73;21.92;;;8.40;96.30;;;;;;5001867;28;20210;-70
2022/10/04 00:06:03;;;;;;;22.15;20.15;;;8.40;96.60;;;;;;5007641;28;20203;-68
2022/10/04 00:08:40;;;;;;;24.92;22.63;;;8.40;96.80;;;;;;5001364;28;20217;-68
2022/10/04 00:11:19;;;;;;;24.33;22.20;;;8.50;96.80;;;;;;5000980;28;20201;-68
2022/10/04 00:13:50;;;;;;;24.52;22.50;;;8.50;96.50;;;;;;5003911;28;20287;-68
2022/10/04 00:16:24;;;;;;;23.55;21.55;;;8.50;96.40;;;;;;5007056;28;20718;-68
2022/10/04 00:19:02;;;;;;;23.00;21.23;;;8.50;96.90;;;;;;5004479;28;20707;-68
2022/10/04 00:22:11;;;;;;;24.42;22.33;;;8.50;96.90;;;;;;5006712;28;20198;-68
2022/10/04 00:24:58;;;;;;;24.08;22.17;;;8.50;96.90;;;;;;4940650;28;20234;-67
2022/10/04 00:27:28;;;;;;;23.85;22.05;;;8.50;96.90;;;;;;4947205;28;20188;-68
2022/10/04 00:30:20;;;;;;;24.02;21.85;;;8.50;96.60;;;;;;4983870;28;20227;-68
2022/10/04 00:33:01;;;;;;;22.85;21.23;;;8.50;96.70;;;;;;5002754;28;20214;-68
2022/10/04 00:35:49;;;;;;;24.88;22.95;;;8.50;96.80;;;;;;5002479;28;20708;-68
2022/10/04 00:38:24;;;;;;;24.15;21.92;;;8.50;96.70;;;;;;5000647;28;20198;-68
2022/10/04 00:40:57;;;;;;;24.60;22.30;;;8.50;96.70;;;;;;4999118;28;20194;-70
2022/10/04 00:43:29;;;;;;;24.02;22.08;;;8.40;96.70;;;;;;5006112;28;20216;-71
2022/10/04 00:46:01;;;;;;;25.52;23.45;;;8.50;97.20;;;;;;5000743;28;20302;-70
2022/10/04 00:48:39;;;;;;;24.23;22.52;;;8.40;97.00;;;;;;5005176;28;20194;-70
2022/10/04 00:51:25;;;;;;;23.10;21.48;;;8.40;96.90;;;;;;5007053;28;20206;-70
2022/10/04 00:54:01;;;;;;;24.50;22.58;;;8.40;96.80;;;;;;4999622;28;20210;-70
2022/10/04 00:56:35;;;;;;;25.25;23.33;;;8.40;96.80;;;;;;5002385;28;20284;-70
2022/10/04 00:59:35;;;;;;;24.88;22.88;;;8.40;96.80;;;;;;5002834;28;20292;-70
2022/10/04 01:02:06;;;;;;;24.08;22.27;;;8.40;96.80;;;;;;4999025;28;20194;-70
2022/10/04 01:04:41;;;;;;;24.63;22.48;;;8.30;96.80;;;;;;5007808;28;20222;-71
2022/10/04 01:07:11;;;;;;;24.52;22.73;;;8.30;96.90;;;;;;5008851;28;20569;-70
2022/10/04 01:09:46;;;;;;;24.55;22.25;;;8.30;96.90;;;;;;4999348;28;20228;-70
2022/10/04 01:12:23;;;;;;;24.30;22.13;;;8.30;97.30;;;;;;5000848;28;20314;-70
2022/10/04 01:14:59;;;;;;;23.55;21.27;;;8.30;96.80;;;;;;5000343;28;20655;-71
2022/10/04 01:17:26;;;;;;;24.05;22.05;;;8.30;96.60;;;;;;5004021;28;20224;-70
2022/10/04 01:19:54;;;;;;;23.05;21.35;;;8.30;96.60;;;;;;5002307;28;20195;-70
2022/10/04 01:22:35;;;;;;;23.92;21.83;;;8.20;96.50;;;;;;5006697;28;20585;-70
2022/10/04 01:25:02;;;;;;;24.33;22.27;;;8.20;96.40;;;;;;5005177;28;20202;-70
2022/10/04 01:27:36;;;;;;;23.50;21.58;;;8.10;96.30;;;;;;5002311;28;20233;-71
2022/10/04 01:30:08;;;;;;;24.05;22.00;;;8.10;96.20;;;;;;5004656;28;20194;-69
2022/10/04 01:32:35;;;;;;;21.80;20.20;;;8.10;96.20;;;;;;5004577;28;20221;-71
2022/10/04 01:35:02;;;;;;;23.10;21.25;;;8.00;96.00;;;;;;5004445;28;20224;-70
2022/10/04 01:37:31;;;;;;;23.25;21.25;;;8.10;95.80;;;;;;5002757;28;20204;-70
2022/10/04 01:39:58;;;;;;;23.60;21.55;;;8.00;96.10;;;;;;5006339;28;20194;-70
2022/10/04 01:42:30;;;;;;;22.00;20.10;;;8.00;95.80;;;;;;5006112;28;20195;-68
2022/10/04 01:45:02;;;;;;;22.00;20.10;;;8.00;96.00;;;;;;5005076;28;20305;-70
2022/10/04 01:47:37;;;;;;;22.13;20.63;;;7.90;96.30;;;;;;5004844;28;20289;-68
2022/10/04 01:50:10;;;;;;;22.63;20.83;;;7.90;96.50;;;;;;5003252;28;20684;-70
2022/10/04 01:52:44;;;;;;;23.77;21.77;;;7.90;96.40;;;;;;5006516;28;20218;-68
2022/10/04 01:55:15;;;;;;;23.63;21.65;;;7.90;96.70;;;;;;5009046;28;20205;-68
2022/10/04 01:57:47;;;;;;;22.35;20.40;;;7.90;96.60;;;;;;5004939;28;20527;-68
2022/10/04 02:00:15;;;;;;;20.80;19.27;;;7.90;96.40;;;;;;5004159;28;20218;-68
2022/10/04 02:02:50;;;;;;;22.98;21.17;;;7.90;96.00;;;;;;5004290;28;20617;-68
2022/10/04 02:05:21;;;;;;;23.88;21.95;;;8.00;95.70;;;;;;5007300;28;20205;-68
2022/10/04 02:07:50;;;;;;;22.70;20.77;;;7.90;95.70;;;;;;5005537;28;20224;-68
2022/10/04 02:10:20;;;;;;;21.10;19.65;;;7.80;96.30;;;;;;5000632;28;20269;-68
2022/10/04 02:12:50;;;;;;;20.77;19.25;;;7.80;96.10;;;;;;4998991;28;20309;-68
2022/10/04 02:15:20;;;;;;;22.30;20.40;;;7.70;96.10;;;;;;5003788;28;20293;-68
2022/10/04 02:17:48;;;;;;;21.60;20.00;;;7.60;96.20;;;;;;5004506;28;20564;-68
2022/10/04 02:20:18;;;;;;;31.35;29.20;;;7.60;96.10;;;;;;5002914;28;20202;-68
2022/10/04 02:22:48;;;;;;;22.52;20.75;;;7.60;96.30;;;;;;5006592;28;20744;-68
2022/10/04 02:25:19;;;;;;;22.08;20.48;;;7.60;96.10;;;;;;5007396;28;20203;-68
2022/10/04 02:27:46;;;;;;;21.17;19.67;;;7.60;96.10;;;;;;5004700;28;20285;-68
2022/10/04 02:30:14;;;;;;;23.25;21.10;;;7.60;96.30;;;;;;5003225;28;20198;-68
2022/10/04 02:32:58;;;;;;;21.52;19.88;;;7.60;96.80;;;;;;5005523;28;20219;-68
2022/10/04 02:35:28;;;;;;;23.02;21.33;;;7.70;97.10;;;;;;4998313;28;20198;-68
2022/10/04 02:38:02;;;;;;;33.38;31.17;;;7.70;96.80;;;;;;5004981;28;20615;-68
2022/10/04 02:40:36;;;;;;;25.73;23.77;;;7.80;96.70;;;;;;5005399;28;20471;-70
2022/10/04 02:43:08;;;;;;;24.02;22.23;;;7.80;96.70;;;;;;5001984;28;20310;-70
2022/10/04 02:45:43;;;;;;;21.95;20.35;;;7.80;96.70;;;;;;5006691;28;20545;-69
2022/10/04 02:48:23;;;;;;;24.15;22.27;;;7.80;96.80;;;;;;4995121;28;20216;-70
2022/10/04 02:50:53;;;;;;;24.85;22.88;;;7.80;96.70;;;;;;5001354;28;20197;-70
2022/10/04 02:53:26;;;;;;;33.15;31.10;;;7.80;96.80;;;;;;5000009;28;20218;-69
2022/10/04 02:55:55;;;;;;;21.52;19.83;;;7.80;96.80;;;;;;5007409;28;20201;-69
2022/10/04 02:58:25;;;;;;;23.02;21.23;;;7.80;96.80;;;;;;5000637;28;20196;-70
2022/10/04 03:00:56;;;;;;;28.88;26.80;;;7.80;96.70;;;;;;5005044;28;20558;-70
2022/10/04 03:03:25;;;;;;;21.25;19.60;;;7.80;97.00;;;;;;4999095;28;20215;-70
2022/10/04 03:06:04;;;;;;;24.92;23.20;;;7.70;97.10;;;;;;5006949;28;20285;-70
2022/10/04 03:08:34;;;;;;;38.05;35.60;;;7.80;96.90;;;;;;5003225;28;20300;-68
2022/10/04 03:11:04;;;;;;;35.63;32.40;;;7.80;96.50;;;;;;5004033;28;20212;-68
2022/10/04 03:13:33;;;;;;;26.10;24.40;;;7.70;96.80;;;;;;5002110;28;20244;-68
2022/10/04 03:16:01;;;;;;;41.50;39.10;;;7.70;97.00;;;;;;5006885;28;20285;-68
2022/10/04 03:18:29;;;;;;;41.22;38.95;;;7.70;97.20;;;;;;5002345;28;20194;-68
2022/10/04 03:20:56;;;;;;;25.20;23.05;;;7.70;97.10;;;;;;4997968;28;20824;-68
2022/10/04 03:23:23;;;;;;;28.10;25.92;;;7.70;97.10;;;;;;4999969;28;20334;-68
2022/10/04 03:25:53;;;;;;;24.13;22.45;;;7.70;97.10;;;;;;5006454;28;20241;-68
2022/10/04 03:28:22;;;;;;;22.50;20.90;;;7.70;97.00;;;;;;5004805;28;20199;-68
2022/10/04 03:30:49;;;;;;;32.83;30.75;;;7.70;97.30;;;;;;5003009;28;20201;-68
2022/10/04 03:33:22;;;;;;;39.58;37.13;;;7.70;97.00;;;;;;5003266;28;20225;-68
2022/10/04 03:35:53;;;;;;;38.33;36.00;;;7.70;96.80;;;;;;5006573;28;20194;-68
2022/10/04 03:38:22;;;;;;;37.38;35.28;;;7.70;96.70;;;;;;5001528;28;20289;-70
2022/10/04 03:40:53;;;;;;;30.35;28.25;;;7.60;96.90;;;;;;5000193;28;20230;-70
2022/10/04 03:43:26;;;;;;;23.42;21.73;;;7.70;97.20;;;;;;5001415;28;20218;-70
2022/10/04 03:45:55;;;;;;;33.08;31.15;;;7.70;97.40;;;;;;5004298;28;20295;-70
2022/10/04 03:48:33;;;;;;;25.92;23.92;;;7.70;97.30;;;;;;5000129;28;20286;-70
2022/10/04 03:51:02;;;;;;;32.78;30.40;;;7.70;97.00;;;;;;5003772;28;20216;-70
2022/10/04 03:53:34;;;;;;;37.10;34.60;;;7.60;97.00;;;;;;5003569;28;20687;-68
2022/10/04 03:56:02;;;;;;;24.13;22.23;;;7.60;97.00;;;;;;5010354;28;20205;-68
2022/10/04 03:58:31;;;;;;;23.30;21.50;;;7.60;97.10;;;;;;5006420;28;20229;-68
2022/10/04 04:01:17;;;;;;;33.58;31.67;;;7.60;97.00;;;;;;5004938;28;20190;-67
2022/10/04 04:03:54;;;;;;;39.33;36.95;;;7.60;97.00;;;;;;4985987;28;20214;-68
2022/10/04 04:06:22;;;;;;;26.25;21.02;;;7.70;97.00;;;;;;5005924;28;20208;-68
2022/10/04 04:08:53;;;;;;;27.48;25.52;;;7.60;96.90;;;;;;5006554;28;20207;-68
2022/10/04 04:11:23;;;;;;;27.80;26.10;;;7.70;97.20;;;;;;5008081;28;20202;-68
2022/10/04 04:13:59;;;;;;;30.02;28.00;;;7.70;96.90;;;;;;5004663;28;20217;-68
2022/10/04 04:16:27;;;;;;;32.85;30.77;;;7.70;96.50;;;;;;5006209;28;20256;-68
2022/10/04 04:18:55;;;;;;;27.45;25.75;;;7.60;96.50;;;;;;5007738;28;20194;-68
2022/10/04 04:21:25;;;;;;;25.67;24.08;;;7.60;96.80;;;;;;5005701;28;20221;-68
2022/10/04 04:23:56;;;;;;;19.60;18.00;;;7.60;96.80;;;;;;5005360;28;20604;-68
2022/10/04 04:26:30;;;;;;;25.15;23.45;;;7.60;96.50;;;;;;5008275;28;20194;-68
2022/10/04 04:29:05;;;;;;;23.60;21.80;;;7.60;96.20;;;;;;5003032;28;20199;-68
2022/10/04 04:31:38;;;;;;;36.42;34.33;;;7.50;96.00;;;;;;5004277;28;20204;-68
2022/10/04 04:34:15;;;;;;;24.52;22.83;;;7.50;96.00;;;;;;5004822;28;20222;-69
2022/10/04 04:36:42;;;;;;;25.52;23.88;;;7.50;96.20;;;;;;5002416;28;20197;-68
2022/10/04 04:41:58;;;;;;;28.13;26.42;;;7.60;96.30;;;;;;5001526;28;20680;-68
2022/10/04 04:44:27;;;;;;;24.75;22.85;;;7.60;96.30;;;;;;5001235;28;20580;-68
2022/10/04 04:46:55;;;;;;;31.95;29.48;;;7.60;96.50;;;;;;5002952;28;20590;-69
2022/10/04 04:49:23;;;;;;;35.53;33.28;;;7.60;96.50;;;;;;5005207;28;20222;-69
2022/10/04 04:51:52;;;;;;;33.78;31.65;;;7.60;96.80;;;;;;5008101;28;20739;-68
2022/10/04 04:54:23;;;;;;;19.48;18.13;;;7.70;96.40;;;;;;5007921;28;20317;-70
2022/10/04 04:56:52;;;;;;;29.65;27.70;;;7.60;96.70;;;;;;5006641;28;20195;-68
2022/10/04 04:59:22;;;;;;;28.15;26.05;;;7.60;96.70;;;;;;5002572;28;20198;-67
2022/10/04 05:01:51;;;;;;;20.95;19.45;;;7.60;97.00;;;;;;4999071;28;20190;-69
2022/10/04 05:04:20;;;;;;;21.52;19.83;;;7.60;96.90;;;;;;5002063;28;20218;-70
2022/10/04 05:06:58;;;;;;;21.40;19.73;;;7.60;96.50;;;;;;5001979;28;20203;-69
2022/10/04 05:09:27;;;;;;;30.33;28.42;;;7.50;96.50;;;;;;5006544;28;20205;-70
2022/10/04 05:12:01;;;;;;;23.02;21.52;;;7.60;96.70;;;;;;5005937;28;20216;-68
2022/10/04 05:14:31;;;;;;;20.67;18.77;;;7.60;96.30;;;;;;4991857;28;20226;-68
2022/10/04 05:16:59;;;;;;;22.17;20.52;;;7.60;96.30;;;;;;4999374;28;20206;-67
2022/10/04 05:19:30;;;;;;;34.35;32.25;;;7.60;96.30;;;;;;5008093;28;20234;-68
2022/10/04 05:22:00;;;;;;;22.52;20.90;;;7.60;96.20;;;;;;5007982;28;20217;-68
2022/10/04 05:24:30;;;;;;;32.05;30.23;;;7.60;96.20;;;;;;5002535;28;20218;-70
2022/10/04 05:27:01;;;;;;;27.70;25.80;;;7.60;96.10;;;;;;5008236;28;20206;-67
2022/10/04 05:29:32;;;;;;;26.80;25.00;;;7.70;95.40;;;;;;5005648;28;20522;-67
2022/10/04 05:32:18;;;;;;;27.95;26.38;;;7.60;95.30;;;;;;5003678;28;20210;-68
2022/10/04 05:34:49;;;;;;;20.55;18.95;;;7.60;95.30;;;;;;5004043;28;20565;-67
2022/10/04 05:37:36;;;;;;;37.05;34.90;;;7.60;95.40;;;;;;5000929;28;20831;-67
2022/10/04 05:40:15;;;;;;;41.35;38.58;;;7.60;95.20;;;;;;5010578;28;20206;-70
2022/10/04 05:42:44;;;;;;;34.92;32.60;;;7.70;95.10;;;;;;5001306;28;20330;-70
2022/10/04 05:45:18;;;;;;;21.25;19.48;;;7.70;94.90;;;;;;5010262;28;20197;-70
2022/10/04 05:47:50;;;;;;;35.47;33.42;;;7.70;95.00;;;;;;5007236;28;20200;-70
2022/10/04 05:50:21;;;;;;;26.92;25.13;;;7.70;95.40;;;;;;5010246;28;20202;-70
2022/10/04 05:52:51;;;;;;;26.63;24.90;;;7.70;95.40;;;;;;5007201;28;20559;-70
2022/10/04 05:55:27;;;;;;;21.52;19.83;;;7.80;95.20;;;;;;5010778;28;20205;-69
2022/10/04 05:58:20;;;;;;;24.75;23.15;;;7.80;95.00;;;;;;5006858;28;20289;-69
2022/10/04 06:01:09;;;;;;;29.98;28.00;;;7.90;95.10;;;;;;4997202;28;20210;-69
2022/10/04 06:04:01;;;;;;;43.78;41.08;;;7.90;95.10;;;;;;5006423;28;20217;-69
2022/10/04 06:06:37;;;;;;;23.67;22.08;;;7.90;94.90;;;;;;5008544;28;20285;-68
2022/10/04 06:09:12;;;;;;;34.78;31.83;;;7.80;94.60;;;;;;5010173;28;20214;-68
2022/10/04 06:11:51;;;;;;;23.05;21.35;;;7.80;94.80;;;;;;5006762;28;20200;-69
2022/10/04 06:14:59;;;;;;;29.45;27.10;;;7.90;95.10;;;;;;5001715;28;20654;-69
2022/10/04 06:18:10;;;;;;;31.60;29.70;;;8.00;95.40;;;;;;5000976;28;20297;-69
2022/10/04 06:20:58;;;;;;;23.23;21.42;;;8.20;95.30;;;;;;4962266;28;20206;-69
2022/10/04 06:23:28;;;;;;;21.10;19.05;;;8.30;95.20;;;;;;5004943;28;20218;-68
2022/10/04 06:25:58;;;;;;;28.40;26.65;;;8.50;94.80;;;;;;4997984;28;20736;-69
2022/10/04 06:28:31;;;;;;;26.55;24.60;;;8.60;94.20;;;;;;5007380;28;20316;-68
2022/10/04 06:31:19;;;;;;;27.83;25.92;;;8.60;94.20;;;;;;5002615;28;20198;-67
2022/10/04 06:34:03;;;;;;;81.78;27.60;;;8.70;94.10;;;;;;5008372;28;20323;-67
2022/10/04 06:37:04;;;;;;;29.92;27.83;;;8.90;94.90;;;;;;5004676;28;20192;-69
2022/10/04 06:40:04;;;;;;;25.93;24.13;;;9.00;94.60;;;;;;5007546;28;20662;-68
2022/10/04 06:43:00;;;;;;;22.47;20.70;;;9.20;94.60;;;;;;5002840;28;20453;-68
2022/10/04 06:45:57;;;;;;;36.50;34.50;;;9.40;93.20;;;;;;5008638;28;20447;-69
2022/10/04 06:49:06;;;;;;;26.93;25.20;;;9.40;92.20;;;;;;5001807;28;20466;-68
2022/10/04 06:51:56;;;;;;;23.17;21.67;;;9.50;92.50;;;;;;4961671;28;20471;-69
2022/10/04 06:54:39;;;;;;;24.67;23.00;;;9.60;92.50;;;;;;5008443;28;20549;-68
2022/10/04 06:57:30;;;;;;;22.93;20.63;;;9.80;92.10;;;;;;4998823;28;20454;-68
2022/10/04 07:00:11;;;;;;;27.10;25.27;;;9.90;91.40;;;;;;4997499;28;20555;-69
2022/10/04 07:02:50;;;;;;;75.10;38.40;;;10.10;91.60;;;;;;5006326;28;20510;-70
2022/10/04 07:05:29;;;;;;;23.40;21.73;;;10.10;92.00;;;;;;5000620;28;20456;-70
2022/10/04 07:08:10;;;;;;;23.07;21.77;;;10.30;90.30;;;;;;5003958;28;20522;-71
2022/10/04 07:10:47;;;;;;;38.10;36.10;;;10.30;89.70;;;;;;4992069;28;20457;-67
2022/10/04 07:13:23;;;;;;;41.57;39.37;;;10.40;89.80;;;;;;5008083;28;20613;-68
2022/10/04 07:16:01;;;;;;;32.67;30.87;;;10.50;90.10;;;;;;4999392;28;20470;-69
2022/10/04 07:18:34;;;;;;;23.00;21.30;;;10.60;90.10;;;;;;5007305;28;20487;-69
2022/10/04 07:21:14;;;;;;;39.27;36.47;;;10.70;90.20;;;;;;4995338;28;20539;-71
2022/10/04 07:23:52;;;;;;;35.83;33.60;;;10.90;89.50;;;;;;5004949;28;20464;-71
2022/10/04 07:26:29;;;;;;;28.87;26.17;;;11.00;88.90;;;;;;5008315;28;20457;-69
2022/10/04 07:31:46;;;;;;;40.70;38.30;;;11.20;88.40;;;;;;5004596;28;20461;-70
2022/10/04 07:34:22;;;;;;;30.60;28.70;;;11.30;87.80;;;;;;5011665;28;20491;-70
2022/10/04 07:37:09;;;;;;;42.93;40.37;;;11.50;87.40;;;;;;5002313;28;20514;-69
2022/10/04 07:39:53;;;;;;;37.20;34.90;;;11.60;86.10;;;;;;4997608;28;20461;-69
2022/10/04 07:42:31;;;;;;;36.80;34.80;;;11.70;85.10;;;;;;5010738;28;20964;-72
2022/10/04 07:45:16;;;;;;;31.17;29.00;;;11.80;84.70;;;;;;5000114;28;20491;-70
2022/10/04 07:47:44;;;;;;;51.07;48.00;;;11.80;84.20;;;;;;4998946;28;20467;-72
2022/10/04 07:50:22;;;;;;;53.10;50.03;;;12.00;83.40;;;;;;5004265;28;20456;-70
2022/10/04 07:52:57;;;;;;;33.97;31.97;;;11.90;82.80;;;;;;5009940;28;20493;-70
2022/10/04 07:55:32;;;;;;;39.37;37.27;;;11.60;83.70;;;;;;5011746;28;20479;-71
2022/10/04 07:58:22;;;;;;;31.37;29.60;;;11.90;82.80;;;;;;5009237;28;20456;-71
2022/10/04 08:00:57;;;;;;;44.27;41.87;;;11.80;82.30;;;;;;5017028;28;20460;-69
2022/10/04 08:03:48;;;;;;;58.73;55.47;;;11.80;83.10;;;;;;5011092;28;20492;-70
2022/10/04 08:06:20;;;;;;;31.17;28.80;;;11.90;81.90;;;;;;5011025;28;20461;-69
2022/10/04 08:09:05;;;;;;;37.90;35.40;;;11.90;82.00;;;;;;5011267;28;20481;-70
2022/10/04 08:11:42;;;;;;;37.93;35.57;;;12.10;82.10;;;;;;5011758;28;20874;-70
2022/10/04 08:14:24;;;;;;;33.77;31.40;;;12.20;81.80;;;;;;5000242;28;20497;-70
2022/10/04 08:17:02;;;;;;;42.17;39.30;;;12.40;81.30;;;;;;4997531;28;20465;-70
2022/10/04 08:19:43;;;;;;;48.27;45.40;;;12.50;80.90;;;;;;5011201;28;20480;-70
2022/10/04 08:22:22;;;;;;;48.83;46.03;;;12.70;80.30;;;;;;5011094;28;20515;-70
2022/10/04 08:24:59;;;;;;;33.03;30.93;;;12.80;80.00;;;;;;5011217;28;20479;-71
2022/10/04 08:29:41;;;;;;;48.07;45.33;;;13.00;79.60;;;;;;5008276;28;20491;-70
2022/10/04 08:30:47;;;;;;;47.53;45.03;;;13.10;79.40;;;;;;5002617;28;20460;-71
2022/10/04 08:33:28;;;;;;;30.77;28.70;;;13.10;79.40;;;;;;5006271;28;20477;-68
2022/10/04 08:36:07;;;;;;;46.70;44.10;;;13.20;79.40;;;;;;5010140;28;20565;-68
2022/10/04 08:38:46;;;;;;;32.63;30.20;;;13.40;79.20;;;;;;5001403;28;20469;-68
2022/10/04 08:41:54;;;;;;;44.97;42.20;;;13.40;78.90;;;;;;5009896;28;20974;-71
2022/10/04 08:45:02;;;;;;;31.97;29.77;;;13.40;78.60;;;;;;4999309;28;20504;-69
2022/10/04 08:48:07;;;;;;;45.20;42.63;;;13.40;79.20;;;;;;5008175;28;20452;-68
2022/10/04 08:51:21;;;;;;;59.53;56.33;;;13.60;79.00;;;;;;4997991;28;20584;-67
2022/10/04 08:54:48;;;;;;;39.50;36.97;;;13.80;78.30;;;;;;4918635;28;20678;-68
2022/10/04 08:58:00;;;;;;;32.27;29.87;;;13.80;78.00;;;;;;4992652;28;20458;-68
2022/10/04 09:00:45;;;;;;;31.97;29.67;;;13.90;78.20;;;;;;4999123;28;20466;-67
2022/10/04 09:03:44;;;;;;;48.70;46.20;;;14.00;77.80;;;;;;5000879;28;20579;-68
2022/10/04 09:06:43;;;;;;;45.53;42.93;;;14.10;77.50;;;;;;5009692;28;20454;-68
2022/10/04 09:09:45;;;;;;;33.30;30.90;;;14.10;77.30;;;;;;5007029;28;20468;-70
2022/10/04 09:12:35;;;;;;;48.37;45.23;;;14.20;77.60;;;;;;4992503;28;20460;-69
2022/10/04 09:15:29;;;;;;;40.37;38.27;;;14.30;77.10;;;;;;4997174;28;20482;-69
2022/10/04 09:18:14;;;;;;;38.93;36.73;;;14.50;75.50;;;;;;4995477;28;20482;-69
2022/10/04 09:20:57;;;;;;;35.90;33.70;;;14.40;75.50;;;;;;4992345;28;20480;-69
2022/10/04 09:23:48;;;;;;;35.37;32.67;;;14.50;75.60;;;;;;4992243;28;20504;-69
2022/10/04 09:26:21;;;;;;;35.30;33.13;;;14.60;75.50;;;;;;4991461;28;20897;-69
2022/10/04 09:29:46;;;;;;;32.00;30.30;;;14.60;75.50;;;;;;4999055;28;20481;-69
2022/10/04 09:32:42;;;;;;;52.90;48.67;;;14.80;74.60;;;;;;4966436;28;20447;-68
2022/10/04 09:35:43;;;;;;;34.63;32.60;;;15.00;74.80;;;;;;5005351;28;20484;-68
2022/10/04 09:38:37;;;;;;;46.37;43.70;;;15.20;74.40;;;;;;5005810;28;20544;-69
2022/10/04 09:41:29;;;;;;;55.03;51.73;;;15.40;74.30;;;;;;5007536;28;20493;-69
2022/10/04 09:44:29;;;;;;;48.50;46.13;;;15.70;73.10;;;;;;5005684;28;20479;-68
2022/10/04 09:47:12;;;;;;;42.10;40.03;;;15.80;71.80;;;;;;5005393;28;20472;-67
2022/10/04 09:50:16;;;;;;;32.57;30.87;;;15.90;72.00;;;;;;5007951;28;20457;-67
2022/10/04 09:52:55;;;;;;;30.13;28.17;;;16.00;71.30;;;;;;4994129;28;20518;-69
2022/10/04 09:55:42;;;;;;;31.40;30.00;;;16.20;70.90;;;;;;4998705;28;20478;-70
2022/10/04 09:58:57;;;;;;;38.07;35.97;;;16.40;70.50;;;;;;5010858;28;20457;-70
2022/10/04 10:01:32;;;;;;;33.47;31.40;;;16.40;69.50;;;;;;4990301;28;20552;-70
2022/10/04 10:04:13;;;;;;;41.17;38.80;;;16.50;69.70;;;;;;5009364;28;21049;-70
2022/10/04 10:07:03;;;;;;;35.60;33.50;;;16.70;69.20;;;;;;4990870;28;20455;-70
2022/10/04 10:15:35;;;;;;;32.70;30.67;;;16.80;68.80;;;;;;5010437;28;20522;-70
2022/10/04 10:18:15;;;;;;;37.03;34.83;;;16.80;68.30;;;;;;5009746;28;20559;-69
2022/10/04 10:21:13;;;;;;;48.70;46.10;;;16.80;68.50;;;;;;4997468;28;20504;-69
2022/10/04 10:24:15;;;;;;;42.40;39.97;;;16.90;68.40;;;;;;5002679;28;20496;-70
2022/10/04 10:26:56;;;;;;;31.40;29.80;;;16.80;68.80;;;;;;5007939;28;20989;-69
2022/10/04 10:29:51;;;;;;;35.37;33.13;;;16.90;68.80;;;;;;5003810;28;20536;-69
2022/10/04 10:32:43;;;;;;;51.27;48.60;;;17.10;68.90;;;;;;4998320;28;21242;-68
2022/10/04 10:35:27;;;;;;;37.77;35.60;;;17.10;68.50;;;;;;5010035;28;20998;-67
2022/10/04 10:38:18;;;;;;;34.83;32.77;;;17.20;68.70;;;;;;5009373;28;20467;-68
2022/10/04 10:41:02;;;;;;;44.00;40.70;;;17.30;68.90;;;;;;5006609;28;20457;-67
2022/10/04 10:43:54;;;;;;;42.27;39.97;;;17.30;68.90;;;;;;5014810;28;20554;-67
2022/10/04 10:46:48;;;;;;;40.90;38.30;;;17.40;68.60;;;;;;5009073;28;20454;-69
2022/10/04 10:49:36;;;;;;;46.20;43.57;;;17.50;69.20;;;;;;5009061;28;20501;-69
2022/10/04 10:52:32;;;;;;;38.07;35.97;;;17.60;68.20;;;;;;5008042;28;20449;-69
2022/10/04 10:55:35;;;;;;;44.30;42.00;;;17.70;68.10;;;;;;5002740;28;21268;-69
2022/10/04 10:58:30;;;;;;;38.30;36.30;;;17.60;68.20;;;;;;5001393;28;20493;-67
2022/10/04 11:01:22;;;;;;;44.80;42.50;;;17.80;68.20;;;;;;5002337;28;20971;-67
2022/10/04 11:04:21;;;;;;;52.40;49.50;;;18.00;67.90;;;;;;5002876;28;20481;-67
2022/10/04 11:07:22;;;;;;;35.73;33.97;;;18.10;67.40;;;;;;5008965;28;20457;-67
2022/10/04 11:10:24;;;;;;;34.80;32.67;;;18.20;67.30;;;;;;5001570;28;20464;-67
2022/10/04 11:13:06;;;;;;;33.93;32.00;;;18.20;67.30;;;;;;5003967;28;21319;-70
2022/10/04 11:15:48;;;;;;;40.57;38.50;;;18.30;67.30;;;;;;5005062;28;20504;-69
2022/10/04 11:19:05;;;;;;;37.53;35.30;;;18.50;67.30;;;;;;5001999;28;20467;-68
2022/10/04 11:22:06;;;;;;;36.10;34.23;;;18.60;66.60;;;;;;5005617;28;20463;-69
2022/10/04 11:24:55;;;;;;;39.00;36.80;;;18.80;67.00;;;;;;5004699;28;20566;-70
2022/10/04 11:27:38;;;;;;;36.30;34.40;;;18.80;67.10;;;;;;5002705;28;20463;-69
2022/10/04 11:30:18;;;;;;;44.77;42.30;;;18.90;66.50;;;;;;5000133;28;20461;-69
2022/10/04 11:33:25;;;;;;;52.47;49.67;;;19.00;66.20;;;;;;5003849;28;20463;-70
2022/10/04 11:36:25;;;;;;;35.77;33.77;;;19.00;66.10;;;;;;5000083;28;20488;-69
2022/10/04 11:39:02;;;;;;;32.47;30.70;;;19.10;66.10;;;;;;5002145;28;20473;-69
2022/10/04 11:41:46;;;;;;;48.57;45.90;;;19.20;66.00;;;;;;5002004;28;20459;-70
2022/10/04 11:44:54;;;;;;;32.77;31.07;;;19.30;65.80;;;;;;5004322;28;20479;-68
2022/10/04 11:47:34;;;;;;;41.73;39.43;;;19.30;65.70;;;;;;4995261;28;20462;-71
2022/10/04 11:50:21;;;;;;;36.20;34.40;;;19.30;65.70;;;;;;5002481;28;20560;-70
2022/10/04 11:53:27;;;;;;;31.47;30.00;;;19.40;65.70;;;;;;5007979;28;20464;-69
2022/10/04 11:56:21;;;;;;;45.37;43.07;;;19.50;65.50;;;;;;5007254;28;20496;-73
2022/10/04 11:59:02;;;;;;;48.43;45.83;;;19.60;65.10;;;;;;5005459;28;20466;-70
2022/10/04 12:02:22;;;;;;;35.03;33.13;;;19.70;65.20;;;;;;5007557;28;20457;-71
2022/10/04 12:05:29;;;;;;;38.50;36.60;;;19.90;64.60;;;;;;5006201;28;20484;-70
2022/10/04 12:08:10;;;;;;;40.43;38.37;;;20.00;64.70;;;;;;5011665;28;20510;-70
2022/10/04 12:10:38;;;;;;;36.50;34.60;;;20.10;65.10;;;;;;5007621;28;20469;-69
2022/10/04 12:13:40;;;;;;;40.67;38.57;;;20.20;64.20;;;;;;5010957;28;20551;-69
2022/10/04 12:16:44;;;;;;;36.83;34.93;;;20.30;63.20;;;;;;5006656;28;20556;-69
2022/10/04 12:19:38;;;;;;;55.47;52.77;;;20.40;63.10;;;;;;5000637;28;20453;-68
2022/10/04 12:22:29;;;;;;;35.67;33.57;;;20.50;63.20;;;;;;5005817;28;20934;-68
2022/10/04 12:25:47;;;;;;;34.83;33.10;;;20.30;63.80;;;;;;5009125;28;20484;-67
2022/10/04 12:28:30;;;;;;;37.33;35.63;;;20.50;63.80;;;;;;5008921;28;20835;-67
2022/10/04 12:31:21;;;;;;;45.43;43.30;;;20.50;63.90;;;;;;5002758;28;20453;-68
2022/10/04 12:33:53;;;;;;;51.33;48.70;;;20.50;64.10;;;;;;4993979;28;20485;-68
2022/10/04 12:36:31;;;;;;;41.70;39.47;;;20.50;63.40;;;;;;4993768;28;20481;-67
2022/10/04 12:39:15;;;;;;;33.03;31.53;;;20.50;63.60;;;;;;5005730;28;20479;-68
2022/10/04 12:41:54;;;;;;;41.67;39.57;;;20.40;63.90;;;;;;4995276;28;20493;-67
2022/10/04 12:44:31;;;;;;;32.03;30.50;;;20.30;64.10;;;;;;5008997;28;20555;-67
2022/10/04 12:47:24;;;;;;;39.43;37.13;;;20.30;63.90;;;;;;4993311;28;20549;-67
2022/10/04 12:49:59;;;;;;;39.67;37.80;;;20.30;63.90;;;;;;5000714;28;20454;-67
2022/10/04 12:52:34;;;;;;;40.57;38.63;;;20.30;63.60;;;;;;5009749;28;20496;-67
2022/10/04 12:55:09;;;;;;;34.57;32.97;;;20.40;62.70;;;;;;4997137;28;20481;-69
2022/10/04 12:57:46;;;;;;;37.13;35.00;;;20.40;62.60;;;;;;5011879;28;20471;-70
2022/10/04 13:00:23;;;;;;;33.40;31.60;;;20.20;62.30;;;;;;5003864;28;20465;-69
2022/10/04 13:03:16;;;;;;;36.53;34.70;;;20.00;62.80;;;;;;5000585;28;20460;-70
2022/10/04 13:06:01;;;;;;;45.83;43.60;;;20.00;62.70;;;;;;5001799;28;20454;-69
2022/10/04 13:08:42;;;;;;;34.33;32.73;;;19.90;62.90;;;;;;5008384;28;20460;-70
2022/10/04 13:11:29;;;;;;;33.90;31.90;;;19.90;62.90;;;;;;5007688;28;20484;-69
2022/10/04 13:14:13;;;;;;;31.53;29.93;;;19.90;62.90;;;;;;5002622;28;20477;-69
2022/10/04 13:16:50;;;;;;;34.57;32.97;;;19.90;62.60;;;;;;5008709;28;20495;-70
2022/10/04 13:19:24;;;;;;;39.67;37.67;;;20.00;62.40;;;;;;5008923;28;21090;-70
2022/10/04 13:22:26;;;;;;;43.20;41.30;;;20.00;62.00;;;;;;5011249;28;20457;-69
2022/10/04 13:25:05;;;;;;;33.40;31.80;;;20.00;62.30;;;;;;4995576;28;20557;-69
2022/10/04 13:27:42;;;;;;;35.03;33.43;;;20.10;62.10;;;;;;4993101;28;20456;-70
2022/10/04 13:30:22;;;;;;;31.93;30.20;;;20.20;61.70;;;;;;5005989;28;20464;-69
2022/10/04 13:32:58;;;;;;;32.00;30.60;;;20.10;61.50;;;;;;5024147;28;20453;-69
2022/10/04 13:35:30;;;;;;;42.90;40.70;;;20.00;60.50;;;;;;5009776;28;20963;-68
2022/10/04 13:38:31;;;;;;;43.60;41.60;;;19.90;61.20;;;;;;5007866;28;20804;-68
2022/10/04 13:41:16;;;;;;;34.23;32.53;;;20.00;60.90;;;;;;5011090;28;20820;-67
2022/10/04 13:44:14;;;;;;;38.20;36.00;;;20.10;60.80;;;;;;5006472;28;20854;-67
2022/10/04 13:46:51;;;;;;;43.17;40.77;;;20.10;61.70;;;;;;5004523;28;20463;-71
2022/10/04 13:49:30;;;;;;;37.13;35.10;;;20.00;62.00;;;;;;4998442;28;20464;-70
2022/10/04 13:58:25;;;;;;;51.33;48.90;;;19.90;62.40;;;;;;5001743;28;20541;-69
2022/10/04 14:01:20;;;;;;;47.63;45.23;;;19.90;61.70;;;;;;5001525;28;20462;-69